sensor_id;sensor_type;location;lat;lon;timestamp;pressure;altitude;pressure_sealevel;temperature;humidity
42847;BME280;28495;49.916;14.536;2023-04-23T00:03:26;96278.63;;;13.63;52.43
42847;BME280;28495;49.916;14.536;2023-04-23T00:08:49;96280.78;;;13.60;52.56
42847;BME280;28495;49.916;14.536;2023-04-23T00:14:13;96265.47;;;13.40;52.64
42847;BME280;28495;49.916;14.536;2023-04-23T00:19:34;96263.84;;;13.22;52.83
42847;BME280;28495;49.916;14.536;2023-04-23T00:24:55;96259.78;;;13.20;53.15
42847;BME280;28495;49.916;14.536;2023-04-23T00:30:16;96253.44;;;13.06;53.21
42847;BME280;28495;49.916;14.536;2023-04-23T00:35:38;96255.75;;;12.92;53.09
42847;BME280;28495;49.916;14.536;2023-04-23T00:40:59;96250.06;;;12.89;53.64
42847;BME280;28495;49.916;14.536;2023-04-23T00:46:19;96243.53;;;12.76;53.35
42847;BME280;28495;49.916;14.536;2023-04-23T00:51:41;96247.63;;;12.79;53.55
42847;BME280;28495;49.916;14.536;2023-04-23T00:57:02;96248.94;;;12.75;54.02
42847;BME280;28495;49.916;14.536;2023-04-23T01:02:24;96243.72;;;12.67;54.11
42847;BME280;28495;49.916;14.536;2023-04-23T01:07:48;96244.56;;;12.59;53.85
42847;BME280;28495;49.916;14.536;2023-04-23T01:13:11;96242.44;;;12.54;54.12
42847;BME280;28495;49.916;14.536;2023-04-23T01:18:32;96252.06;;;12.54;54.15
42847;BME280;28495;49.916;14.536;2023-04-23T01:23:54;96239.00;;;12.45;54.25
42847;BME280;28495;49.916;14.536;2023-04-23T01:29:15;96242.59;;;12.53;54.65
42847;BME280;28495;49.916;14.536;2023-04-23T01:34:38;96233.28;;;12.50;54.55
42847;BME280;28495;49.916;14.536;2023-04-23T01:40:00;96237.53;;;12.43;54.55
42847;BME280;28495;49.916;14.536;2023-04-23T01:45:22;96254.88;;;12.35;54.51
42847;BME280;28495;49.916;14.536;2023-04-23T01:50:43;96262.03;;;12.42;54.92
42847;BME280;28495;49.916;14.536;2023-04-23T01:56:05;96247.00;;;12.44;54.84
42847;BME280;28495;49.916;14.536;2023-04-23T02:01:43;96241.63;;;12.37;55.28
42847;BME280;28495;49.916;14.536;2023-04-23T02:07:04;96243.75;;;12.33;55.07
42847;BME280;28495;49.916;14.536;2023-04-23T02:12:25;96240.13;;;12.43;55.50
42847;BME280;28495;49.916;14.536;2023-04-23T02:17:46;96245.38;;;12.43;55.41
42847;BME280;28495;49.916;14.536;2023-04-23T02:23:11;96242.28;;;12.39;55.50
42847;BME280;28495;49.916;14.536;2023-04-23T02:28:32;96252.41;;;12.34;55.43
42847;BME280;28495;49.916;14.536;2023-04-23T02:33:52;96246.38;;;12.33;55.59
42847;BME280;28495;49.916;14.536;2023-04-23T02:39:13;96247.00;;;12.27;55.39
42847;BME280;28495;49.916;14.536;2023-04-23T02:44:35;96255.19;;;12.32;55.86
42847;BME280;28495;49.916;14.536;2023-04-23T02:49:56;96261.06;;;12.34;55.83
42847;BME280;28495;49.916;14.536;2023-04-23T02:55:17;96257.31;;;12.37;55.80
42847;BME280;28495;49.916;14.536;2023-04-23T03:00:38;96246.38;;;12.33;55.99
42847;BME280;28495;49.916;14.536;2023-04-23T03:06:00;96237.69;;;12.41;55.96
42847;BME280;28495;49.916;14.536;2023-04-23T03:11:21;96251.28;;;12.53;55.99
42847;BME280;28495;49.916;14.536;2023-04-23T03:16:42;96248.63;;;12.61;55.96
42847;BME280;28495;49.916;14.536;2023-04-23T03:22:03;96250.41;;;12.69;56.10
42847;BME280;28495;49.916;14.536;2023-04-23T03:27:25;96245.66;;;12.73;55.88
42847;BME280;28495;49.916;14.536;2023-04-23T03:32:48;96252.22;;;12.69;56.11
42847;BME280;28495;49.916;14.536;2023-04-23T03:38:09;96247.63;;;12.71;56.13
42847;BME280;28495;49.916;14.536;2023-04-23T03:43:30;96237.00;;;12.64;55.96
42847;BME280;28495;49.916;14.536;2023-04-23T03:48:58;96231.47;;;12.59;56.29
42847;BME280;28495;49.916;14.536;2023-04-23T03:54:20;96223.00;;;12.40;56.64
42847;BME280;28495;49.916;14.536;2023-04-23T04:00:18;96177.06;;;12.94;57.12
42847;BME280;28495;49.916;14.536;2023-04-23T04:05:40;96176.56;;;13.38;56.59
42847;BME280;28495;49.916;14.536;2023-04-23T04:11:01;96189.66;;;12.99;57.63
42847;BME280;28495;49.916;14.536;2023-04-23T04:16:21;96197.63;;;12.65;58.15
42847;BME280;28495;49.916;14.536;2023-04-23T04:21:42;96195.84;;;12.49;58.32
42847;BME280;28495;49.916;14.536;2023-04-23T04:27:03;96204.66;;;12.48;58.60
42847;BME280;28495;49.916;14.536;2023-04-23T04:32:25;96212.22;;;12.27;58.73
42847;BME280;28495;49.916;14.536;2023-04-23T04:37:46;96214.50;;;12.30;58.98
42847;BME280;28495;49.916;14.536;2023-04-23T04:43:07;96221.53;;;12.38;59.47
42847;BME280;28495;49.916;14.536;2023-04-23T04:48:29;96225.13;;;12.37;59.31
42847;BME280;28495;49.916;14.536;2023-04-23T04:53:51;96231.16;;;12.37;59.50
42847;BME280;28495;49.916;14.536;2023-04-23T04:59:12;96239.19;;;12.35;59.22
42847;BME280;28495;49.916;14.536;2023-04-23T05:04:33;96243.09;;;12.31;59.39
42847;BME280;28495;49.916;14.536;2023-04-23T05:09:54;96240.16;;;12.18;59.65
42847;BME280;28495;49.916;14.536;2023-04-23T05:15:15;96248.97;;;12.25;59.63
42847;BME280;28495;49.916;14.536;2023-04-23T05:20:37;96248.00;;;12.26;59.56
42847;BME280;28495;49.916;14.536;2023-04-23T05:25:58;96249.44;;;12.54;60.39
42847;BME280;28495;49.916;14.536;2023-04-23T05:31:19;96253.53;;;12.64;59.53
42847;BME280;28495;49.916;14.536;2023-04-23T05:36:39;96257.16;;;12.55;59.09
42847;BME280;28495;49.916;14.536;2023-04-23T05:42:01;96251.09;;;12.55;59.50
42847;BME280;28495;49.916;14.536;2023-04-23T05:47:22;96263.66;;;12.59;59.57
42847;BME280;28495;49.916;14.536;2023-04-23T05:52:43;96262.19;;;12.65;59.44
42847;BME280;28495;49.916;14.536;2023-04-23T05:58:04;96270.84;;;12.57;59.44
42847;BME280;28495;49.916;14.536;2023-04-23T06:03:26;96268.06;;;12.67;59.75
42847;BME280;28495;49.916;14.536;2023-04-23T06:08:47;96266.75;;;12.79;59.70
42847;BME280;28495;49.916;14.536;2023-04-23T06:29:18;96269.47;;;13.91;59.00
42847;BME280;28495;49.916;14.536;2023-04-23T06:34:55;96264.13;;;13.76;59.24
42847;BME280;28495;49.916;14.536;2023-04-23T06:40:22;96267.75;;;13.75;59.31
42847;BME280;28495;49.916;14.536;2023-04-23T06:45:42;96266.09;;;13.74;59.21
42847;BME280;28495;49.916;14.536;2023-04-23T06:51:03;96263.44;;;13.82;59.62
42847;BME280;28495;49.916;14.536;2023-04-23T07:34:14;96266.97;;;13.97;60.11
42847;BME280;28495;49.916;14.536;2023-04-23T07:39:35;96269.22;;;14.24;60.00
42847;BME280;28495;49.916;14.536;2023-04-23T07:44:56;96268.59;;;14.60;60.00
42847;BME280;28495;49.916;14.536;2023-04-23T07:50:17;96270.13;;;14.92;59.87
42847;BME280;28495;49.916;14.536;2023-04-23T07:55:38;96268.97;;;15.25;59.47
42847;BME280;28495;49.916;14.536;2023-04-23T08:01:01;96262.31;;;15.44;59.54
42847;BME280;28495;49.916;14.536;2023-04-23T08:06:21;96270.94;;;15.53;59.01
42847;BME280;28495;49.916;14.536;2023-04-23T08:11:43;96272.72;;;15.67;59.13
42847;BME280;28495;49.916;14.536;2023-04-23T08:17:04;96277.06;;;15.60;58.31
42847;BME280;28495;49.916;14.536;2023-04-23T08:22:25;96286.25;;;15.49;58.35
42847;BME280;28495;49.916;14.536;2023-04-23T08:27:45;96285.78;;;15.46;58.53
42847;BME280;28495;49.916;14.536;2023-04-23T08:33:07;96284.69;;;15.55;58.74
42847;BME280;28495;49.916;14.536;2023-04-23T08:38:27;96288.56;;;15.74;58.90
42847;BME280;28495;49.916;14.536;2023-04-23T08:43:53;96274.94;;;15.85;58.44
42847;BME280;28495;49.916;14.536;2023-04-23T08:49:19;96279.00;;;16.03;59.02
42847;BME280;28495;49.916;14.536;2023-04-23T08:54:41;96275.81;;;16.29;58.45
42847;BME280;28495;49.916;14.536;2023-04-23T09:00:09;96290.03;;;16.35;57.96
42847;BME280;28495;49.916;14.536;2023-04-23T09:05:31;96289.97;;;16.28;58.09
42847;BME280;28495;49.916;14.536;2023-04-23T09:10:53;96287.25;;;16.43;58.26
42847;BME280;28495;49.916;14.536;2023-04-23T09:16:15;96292.13;;;16.46;57.72
42847;BME280;28495;49.916;14.536;2023-04-23T09:21:37;96303.63;;;16.39;57.10
42847;BME280;28495;49.916;14.536;2023-04-23T09:26:59;96300.56;;;16.35;56.73
42847;BME280;28495;49.916;14.536;2023-04-23T09:32:30;96306.63;;;16.36;56.67
42847;BME280;28495;49.916;14.536;2023-04-23T09:37:51;96316.34;;;16.35;56.37
42847;BME280;28495;49.916;14.536;2023-04-23T09:43:12;96321.72;;;16.27;56.44
42847;BME280;28495;49.916;14.536;2023-04-23T09:48:40;96318.91;;;16.28;56.54
42847;BME280;28495;49.916;14.536;2023-04-23T10:00:21;96310.75;;;16.23;56.90
42847;BME280;28495;49.916;14.536;2023-04-23T10:05:45;96318.06;;;16.28;56.79
42847;BME280;28495;49.916;14.536;2023-04-23T10:11:23;96315.53;;;15.98;56.54
42847;BME280;28495;49.916;14.536;2023-04-23T10:16:45;96320.72;;;15.91;56.78
42847;BME280;28495;49.916;14.536;2023-04-23T10:22:09;96325.56;;;15.73;56.67
42847;BME280;28495;49.916;14.536;2023-04-23T10:27:41;96326.28;;;15.66;56.97
42847;BME280;28495;49.916;14.536;2023-04-23T10:33:13;96324.28;;;15.68;57.61
42847;BME280;28495;49.916;14.536;2023-04-23T10:38:50;96313.22;;;15.73;57.65
42847;BME280;28495;49.916;14.536;2023-04-23T10:44:19;96310.84;;;15.78;57.82
42847;BME280;28495;49.916;14.536;2023-04-23T10:50:26;96314.84;;;15.74;57.70
42847;BME280;28495;49.916;14.536;2023-04-23T10:55:48;96303.41;;;15.67;57.18
42847;BME280;28495;49.916;14.536;2023-04-23T11:01:09;96307.16;;;15.58;56.90
42847;BME280;28495;49.916;14.536;2023-04-23T11:12:31;96306.53;;;15.55;56.95
42847;BME280;28495;49.916;14.536;2023-04-23T11:23:28;96301.09;;;15.57;57.16
42847;BME280;28495;49.916;14.536;2023-04-23T11:28:52;96303.09;;;15.55;56.78
42847;BME280;28495;49.916;14.536;2023-04-23T11:34:16;96300.19;;;15.50;57.12
42847;BME280;28495;49.916;14.536;2023-04-23T11:39:38;96305.38;;;15.43;57.07
42847;BME280;28495;49.916;14.536;2023-04-23T11:45:01;96316.22;;;15.40;56.94
42847;BME280;28495;49.916;14.536;2023-04-23T11:50:25;96298.47;;;15.42;58.36
42847;BME280;28495;49.916;14.536;2023-04-23T11:55:47;96299.94;;;15.30;59.12
42847;BME280;28495;49.916;14.536;2023-04-23T12:01:10;96294.31;;;15.18;59.12
42847;BME280;28495;49.916;14.536;2023-04-23T12:06:32;96290.06;;;15.17;59.79
42847;BME280;28495;49.916;14.536;2023-04-23T12:11:55;96291.78;;;15.24;60.27
42847;BME280;28495;49.916;14.536;2023-04-23T12:17:18;96290.78;;;15.26;59.91
42847;BME280;28495;49.916;14.536;2023-04-23T12:22:39;96299.38;;;15.34;60.08
42847;BME280;28495;49.916;14.536;2023-04-23T12:28:03;96292.06;;;15.30;59.89
42847;BME280;28495;49.916;14.536;2023-04-23T12:33:28;96293.75;;;15.22;60.28
42847;BME280;28495;49.916;14.536;2023-04-23T12:38:49;96291.41;;;15.13;60.56
42847;BME280;28495;49.916;14.536;2023-04-23T12:44:11;96284.63;;;15.18;61.04
42847;BME280;28495;49.916;14.536;2023-04-23T12:49:34;96285.72;;;15.24;61.10
42847;BME280;28495;49.916;14.536;2023-04-23T12:54:55;96286.06;;;15.21;60.64
42847;BME280;28495;49.916;14.536;2023-04-23T13:00:18;96273.75;;;15.21;60.50
42847;BME280;28495;49.916;14.536;2023-04-23T13:05:40;96276.09;;;15.31;60.65
42847;BME280;28495;49.916;14.536;2023-04-23T13:11:01;96262.53;;;15.43;60.56
42847;BME280;28495;49.916;14.536;2023-04-23T13:16:25;96253.16;;;15.55;60.42
42847;BME280;28495;49.916;14.536;2023-04-23T13:21:46;96259.59;;;15.52;60.31
42847;BME280;28495;49.916;14.536;2023-04-23T13:27:09;96245.22;;;15.48;59.95
42847;BME280;28495;49.916;14.536;2023-04-23T13:32:30;96245.28;;;15.55;60.15
42847;BME280;28495;49.916;14.536;2023-04-23T13:37:52;96240.59;;;15.72;60.18
42847;BME280;28495;49.916;14.536;2023-04-23T13:43:13;96216.44;;;15.83;60.25
42847;BME280;28495;49.916;14.536;2023-04-23T13:48:33;96208.13;;;15.95;59.88
42847;BME280;28495;49.916;14.536;2023-04-23T13:53:54;96204.28;;;15.97;59.80
42847;BME280;28495;49.916;14.536;2023-04-23T13:59:15;96207.34;;;16.01;60.21
42847;BME280;28495;49.916;14.536;2023-04-23T14:04:39;96201.81;;;16.18;60.00
42847;BME280;28495;49.916;14.536;2023-04-23T14:10:00;96203.41;;;16.12;59.31
42847;BME280;28495;49.916;14.536;2023-04-23T14:15:22;96197.13;;;15.91;59.67
42847;BME280;28495;49.916;14.536;2023-04-23T14:20:43;96198.75;;;15.70;58.86
42847;BME280;28495;49.916;14.536;2023-04-23T14:26:08;96188.34;;;15.62;59.04
42847;BME280;28495;49.916;14.536;2023-04-23T14:31:30;96188.81;;;15.51;58.92
42847;BME280;28495;49.916;14.536;2023-04-23T14:36:51;96177.75;;;15.55;59.17
42847;BME280;28495;49.916;14.536;2023-04-23T14:42:12;96178.81;;;15.61;59.14
42847;BME280;28495;49.916;14.536;2023-04-23T14:47:33;96173.53;;;15.76;59.51
42847;BME280;28495;49.916;14.536;2023-04-23T14:52:54;96170.94;;;15.83;59.00
42847;BME280;28495;49.916;14.536;2023-04-23T14:58:16;96166.19;;;15.72;58.67
42847;BME280;28495;49.916;14.536;2023-04-23T15:03:36;96152.84;;;15.51;58.51
42847;BME280;28495;49.916;14.536;2023-04-23T15:08:58;96144.88;;;15.45;58.49
42847;BME280;28495;49.916;14.536;2023-04-23T15:14:30;96145.09;;;15.43;58.86
42847;BME280;28495;49.916;14.536;2023-04-23T15:19:51;96132.22;;;15.48;58.63
42847;BME280;28495;49.916;14.536;2023-04-23T15:25:14;96133.22;;;15.47;59.42
42847;BME280;28495;49.916;14.536;2023-04-23T15:30:36;96136.34;;;15.58;59.16
42847;BME280;28495;49.916;14.536;2023-04-23T15:35:57;96136.66;;;15.69;59.14
42847;BME280;28495;49.916;14.536;2023-04-23T15:41:19;96129.94;;;15.67;58.93
42847;BME280;28495;49.916;14.536;2023-04-23T15:46:40;96126.44;;;15.60;58.69
42847;BME280;28495;49.916;14.536;2023-04-23T15:52:01;96117.69;;;15.52;58.99
42847;BME280;28495;49.916;14.536;2023-04-23T15:57:22;96111.56;;;15.45;59.34
42847;BME280;28495;49.916;14.536;2023-04-23T16:02:43;96099.13;;;15.54;59.43
42847;BME280;28495;49.916;14.536;2023-04-23T16:08:05;96094.28;;;15.36;58.98
42847;BME280;28495;49.916;14.536;2023-04-23T16:13:25;96086.84;;;15.39;59.50
42847;BME280;28495;49.916;14.536;2023-04-23T16:18:48;96080.41;;;15.42;59.28
42847;BME280;28495;49.916;14.536;2023-04-23T16:24:09;96071.03;;;15.33;59.06
42847;BME280;28495;49.916;14.536;2023-04-23T16:29:31;96059.69;;;15.32;59.21
42847;BME280;28495;49.916;14.536;2023-04-23T16:34:52;96055.69;;;15.36;59.25
42847;BME280;28495;49.916;14.536;2023-04-23T16:40:13;96055.63;;;15.30;59.31
42847;BME280;28495;49.916;14.536;2023-04-23T16:45:35;96053.44;;;15.33;59.37
42847;BME280;28495;49.916;14.536;2023-04-23T16:50:58;96053.88;;;15.37;59.54
42847;BME280;28495;49.916;14.536;2023-04-23T16:56:19;96048.13;;;15.48;59.69
42847;BME280;28495;49.916;14.536;2023-04-23T17:01:40;96043.03;;;15.47;59.72
42847;BME280;28495;49.916;14.536;2023-04-23T17:07:01;96047.63;;;15.38;59.54
42847;BME280;28495;49.916;14.536;2023-04-23T17:12:23;96034.47;;;15.38;59.66
42847;BME280;28495;49.916;14.536;2023-04-23T17:17:43;96035.25;;;15.32;59.99
42847;BME280;28495;49.916;14.536;2023-04-23T17:23:04;96027.41;;;15.17;59.89
42847;BME280;28495;49.916;14.536;2023-04-23T17:28:25;96018.72;;;14.94;60.08
42847;BME280;28495;49.916;14.536;2023-04-23T17:33:46;96008.41;;;14.93;60.44
42847;BME280;28495;49.916;14.536;2023-04-23T17:39:09;95998.47;;;14.88;60.29
42847;BME280;28495;49.916;14.536;2023-04-23T17:44:29;95997.22;;;14.84;60.69
42847;BME280;28495;49.916;14.536;2023-04-23T17:49:51;95991.06;;;14.77;60.56
42847;BME280;28495;49.916;14.536;2023-04-23T17:55:15;95991.47;;;14.74;60.71
42847;BME280;28495;49.916;14.536;2023-04-23T18:00:38;95987.44;;;14.78;60.71
42847;BME280;28495;49.916;14.536;2023-04-23T18:06:00;95987.72;;;14.83;60.90
42847;BME280;28495;49.916;14.536;2023-04-23T18:11:21;95991.53;;;14.81;60.72
42847;BME280;28495;49.916;14.536;2023-04-23T18:16:42;95986.28;;;14.81;60.88
42847;BME280;28495;49.916;14.536;2023-04-23T18:22:03;95981.47;;;14.84;61.08
42847;BME280;28495;49.916;14.536;2023-04-23T18:27:23;95985.00;;;14.76;60.71
42847;BME280;28495;49.916;14.536;2023-04-23T18:32:54;95991.00;;;14.70;60.79
42847;BME280;28495;49.916;14.536;2023-04-23T18:38:42;95985.44;;;14.80;60.71
42847;BME280;28495;49.916;14.536;2023-04-23T18:44:06;95984.75;;;14.71;60.71
42847;BME280;28495;49.916;14.536;2023-04-23T18:49:38;95981.50;;;14.69;60.80
42847;BME280;28495;49.916;14.536;2023-04-23T18:55:06;95984.00;;;14.62;60.73
42847;BME280;28495;49.916;14.536;2023-04-23T19:00:28;95983.78;;;14.42;60.55
42847;BME280;28495;49.916;14.536;2023-04-23T19:05:49;95983.25;;;14.47;60.69
42847;BME280;28495;49.916;14.536;2023-04-23T19:11:10;95985.16;;;14.38;60.63
42847;BME280;28495;49.916;14.536;2023-04-23T19:16:31;95975.50;;;14.24;60.86
42847;BME280;28495;49.916;14.536;2023-04-23T19:21:53;95977.94;;;14.10;60.76
42847;BME280;28495;49.916;14.536;2023-04-23T19:27:14;95970.44;;;14.07;61.07
42847;BME280;28495;49.916;14.536;2023-04-23T19:32:35;95962.50;;;14.00;61.00
42847;BME280;28495;49.916;14.536;2023-04-23T19:37:56;95964.59;;;13.75;60.93
42847;BME280;28495;49.916;14.536;2023-04-23T19:43:17;95959.69;;;13.57;61.27
42847;BME280;28495;49.916;14.536;2023-04-23T19:48:39;95952.63;;;13.43;61.39
42847;BME280;28495;49.916;14.536;2023-04-23T19:54:03;95937.50;;;13.30;61.56
42847;BME280;28495;49.916;14.536;2023-04-23T19:59:25;95932.03;;;13.16;61.79
42847;BME280;28495;49.916;14.536;2023-04-23T20:04:45;95928.41;;;13.02;62.39
42847;BME280;28495;49.916;14.536;2023-04-23T20:10:08;95916.50;;;13.00;62.47
42847;BME280;28495;49.916;14.536;2023-04-23T20:15:30;95915.38;;;12.94;62.62
42847;BME280;28495;49.916;14.536;2023-04-23T20:20:53;95906.25;;;12.90;62.69
42847;BME280;28495;49.916;14.536;2023-04-23T20:26:14;95902.66;;;12.91;63.03
42847;BME280;28495;49.916;14.536;2023-04-23T20:31:35;95904.97;;;12.86;63.12
42847;BME280;28495;49.916;14.536;2023-04-23T20:36:57;95905.28;;;12.91;63.15
42847;BME280;28495;49.916;14.536;2023-04-23T20:42:22;95899.16;;;12.99;63.05
42847;BME280;28495;49.916;14.536;2023-04-23T20:47:45;95902.78;;;13.13;63.55
42847;BME280;28495;49.916;14.536;2023-04-23T20:53:07;95896.84;;;13.19;63.34
42847;BME280;28495;49.916;14.536;2023-04-23T20:58:27;95903.81;;;13.26;63.32
42847;BME280;28495;49.916;14.536;2023-04-23T21:03:49;95893.59;;;13.17;62.90
42847;BME280;28495;49.916;14.536;2023-04-23T21:09:13;95883.94;;;13.32;63.41
42847;BME280;28495;49.916;14.536;2023-04-23T21:14:34;95867.25;;;13.33;63.02
42847;BME280;28495;49.916;14.536;2023-04-23T21:19:55;95862.09;;;13.25;62.93
42847;BME280;28495;49.916;14.536;2023-04-23T21:25:19;95860.66;;;13.22;62.77
42847;BME280;28495;49.916;14.536;2023-04-23T21:30:47;95873.28;;;13.19;62.79
42847;BME280;28495;49.916;14.536;2023-04-23T21:36:09;95866.47;;;13.09;62.87
42847;BME280;28495;49.916;14.536;2023-04-23T21:41:30;95872.00;;;13.15;63.09
42847;BME280;28495;49.916;14.536;2023-04-23T21:46:51;95872.06;;;12.91;62.55
42847;BME280;28495;49.916;14.536;2023-04-23T21:52:12;95865.66;;;12.71;62.94
42847;BME280;28495;49.916;14.536;2023-04-23T21:57:34;95865.56;;;12.64;63.17
42847;BME280;28495;49.916;14.536;2023-04-23T22:02:55;95864.75;;;12.63;63.43
42847;BME280;28495;49.916;14.536;2023-04-23T22:08:17;95848.63;;;12.75;63.45
42847;BME280;28495;49.916;14.536;2023-04-23T22:13:39;95842.38;;;12.84;63.24
42847;BME280;28495;49.916;14.536;2023-04-23T22:19:00;95830.16;;;12.76;62.90
42847;BME280;28495;49.916;14.536;2023-04-23T22:24:22;95821.97;;;12.56;62.35
42847;BME280;28495;49.916;14.536;2023-04-23T22:29:43;95803.53;;;12.34;62.13
42847;BME280;28495;49.916;14.536;2023-04-23T22:35:05;95802.47;;;12.20;62.53
42847;BME280;28495;49.916;14.536;2023-04-23T22:40:27;95802.00;;;12.17;62.91
42847;BME280;28495;49.916;14.536;2023-04-23T22:45:47;95803.56;;;12.03;62.97
42847;BME280;28495;49.916;14.536;2023-04-23T22:51:12;95798.81;;;12.07;63.30
42847;BME280;28495;49.916;14.536;2023-04-23T22:56:33;95798.94;;;11.82;62.82
42847;BME280;28495;49.916;14.536;2023-04-23T23:01:54;95800.31;;;11.69;63.12
42847;BME280;28495;49.916;14.536;2023-04-23T23:07:15;95804.09;;;11.58;63.01
42847;BME280;28495;49.916;14.536;2023-04-23T23:12:35;95809.50;;;11.57;63.35
42847;BME280;28495;49.916;14.536;2023-04-23T23:17:56;95817.00;;;11.60;63.06
42847;BME280;28495;49.916;14.536;2023-04-23T23:23:17;95814.34;;;11.68;63.54
42847;BME280;28495;49.916;14.536;2023-04-23T23:28:38;95825.13;;;11.65;63.48
42847;BME280;28495;49.916;14.536;2023-04-23T23:33:59;95872.22;;;11.49;64.13
42847;BME280;28495;49.916;14.536;2023-04-23T23:39:19;95879.06;;;11.41;64.84
42847;BME280;28495;49.916;14.536;2023-04-23T23:44:40;95875.63;;;11.49;64.91
42847;BME280;28495;49.916;14.536;2023-04-23T23:50:01;95861.41;;;11.52;65.00
42847;BME280;28495;49.916;14.536;2023-04-23T23:55:23;95846.06;;;11.57;65.03
